Time;durP1;ratioP1;P1;durP2;ratioP2;P2;SDS_P1;SDS_P2;PMS_P1;PMS_P2;Temp;Humidity;BMP_temperature;BMP_pressure;BME280_temperature;BME280_humidity;BME280_pressure;Samples;Min_cycle;Max_cycle;Signal;HPM_P1;HPM_P2
2022/01/16 00:00:49;;;;;;;119.55;39.20;;;2.10;99.90;;;;;;6186044;23;20019;-85
2022/01/16 00:06:02;;;;;;;113.20;36.45;;;2.10;99.90;;;;;;6212783;23;20019;-86
2022/01/16 00:08:28;;;;;;;125.70;36.97;;;2.10;99.90;;;;;;6183024;23;20103;-86
2022/01/16 00:10:54;;;;;;;124.45;35.85;;;2.00;99.90;;;;;;6186346;23;20026;-86
2022/01/16 00:13:20;;;;;;;129.75;37.10;;;2.00;99.90;;;;;;6162740;23;20345;-85
2022/01/16 00:15:46;;;;;;;130.85;37.90;;;2.00;99.90;;;;;;6211701;23;20012;-86
2022/01/16 00:18:24;;;;;;;130.68;39.35;;;1.90;99.90;;;;;;6161991;23;20019;-86
2022/01/16 00:20:54;;;;;;;141.43;40.92;;;1.90;99.90;;;;;;6210179;23;20008;-86
2022/01/16 00:23:29;;;;;;;123.78;37.22;;;2.00;99.90;;;;;;6183597;23;20016;-85
2022/01/16 00:25:56;;;;;;;117.43;34.97;;;1.90;99.90;;;;;;6209997;23;20095;-86
2022/01/16 00:28:24;;;;;;;125.03;35.15;;;1.90;99.90;;;;;;6186299;23;20114;-86
2022/01/16 00:30:51;;;;;;;126.80;37.33;;;1.90;99.90;;;;;;6211085;23;20019;-87
2022/01/16 00:33:18;;;;;;;133.63;36.60;;;1.90;99.90;;;;;;6159472;23;20066;-85
2022/01/16 00:35:45;;;;;;;114.72;33.78;;;1.90;99.90;;;;;;6186449;23;20043;-87
2022/01/16 00:38:11;;;;;;;131.38;35.58;;;1.80;99.90;;;;;;6185971;23;20012;-86
2022/01/16 00:40:41;;;;;;;118.75;37.85;;;1.80;99.90;;;;;;6207956;23;20077;-84
2022/01/16 00:43:07;;;;;;;117.32;33.45;;;1.80;99.90;;;;;;6211678;23;20027;-84
2022/01/16 00:45:45;;;;;;;114.18;33.40;;;1.80;99.90;;;;;;6198756;23;20016;-85
2022/01/16 00:48:11;;;;;;;113.82;33.47;;;1.80;99.90;;;;;;6231880;23;20071;-86
2022/01/16 00:50:40;;;;;;;116.55;33.70;;;1.70;99.90;;;;;;6232113;23;20071;-86
2022/01/16 00:53:13;;;;;;;116.70;35.38;;;1.70;99.90;;;;;;6183351;23;20004;-86
2022/01/16 00:55:48;;;;;;;135.27;37.40;;;1.60;99.90;;;;;;6225289;23;20047;-86
2022/01/16 00:58:17;;;;;;;139.48;38.95;;;1.60;99.90;;;;;;6185527;23;20012;-86
2022/01/16 01:00:43;;;;;;;118.47;33.78;;;1.60;99.90;;;;;;6210549;23;20016;-86
2022/01/16 01:03:11;;;;;;;121.85;36.83;;;1.60;99.90;;;;;;6184626;23;20015;-86
2022/01/16 01:05:36;;;;;;;124.53;36.50;;;1.60;99.90;;;;;;6185531;23;20012;-86
2022/01/16 01:08:04;;;;;;;137.98;38.42;;;1.60;99.90;;;;;;6159134;23;20049;-85
2022/01/16 01:10:34;;;;;;;125.35;36.88;;;1.60;99.90;;;;;;6184960;23;20012;-85
2022/01/16 01:13:54;;;;;;;145.93;39.80;;;1.60;99.90;;;;;;6183718;23;20020;-84
2022/01/16 01:15:59;;;;;;;;;;;1.60;99.90;;;;;;6205224;23;20035;-86
2022/01/16 01:18:25;;;;;;;150.20;38.75;;;1.50;99.90;;;;;;6159960;23;19982;-86
2022/01/16 01:20:52;;;;;;;164.93;39.13;;;1.50;99.90;;;;;;6212187;23;20318;-85
2022/01/16 01:23:18;;;;;;;158.57;40.38;;;1.50;99.90;;;;;;6212278;23;20469;-85
2022/01/16 01:25:44;;;;;;;146.43;39.03;;;1.50;99.90;;;;;;6212502;23;20077;-85
2022/01/16 01:28:21;;;;;;;148.52;38.55;;;1.50;99.90;;;;;;6211099;23;20201;-86
2022/01/16 01:30:47;;;;;;;125.30;36.60;;;1.50;99.90;;;;;;6185599;23;20016;-84
2022/01/16 01:33:15;;;;;;;119.18;36.90;;;1.50;99.90;;;;;;6184176;23;20026;-86
2022/01/16 01:35:42;;;;;;;126.53;36.75;;;1.50;99.90;;;;;;6159362;23;20020;-87
2022/01/16 01:38:10;;;;;;;124.53;37.05;;;1.40;99.90;;;;;;6183189;23;20095;-85
2022/01/16 01:40:38;;;;;;;114.97;35.47;;;1.40;99.90;;;;;;6209723;23;20081;-86
2022/01/16 01:51:26;;;;;;;109.07;33.67;;;1.40;99.90;;;;;;6210345;23;20102;-85
2022/01/16 01:53:56;;;;;;;114.60;34.15;;;1.40;99.90;;;;;;6183365;23;20531;-86
2022/01/16 01:56:24;;;;;;;99.70;32.22;;;1.30;99.90;;;;;;6184754;23;20408;-86
2022/01/16 01:58:55;;;;;;;115.88;34.40;;;1.30;99.90;;;;;;6209210;23;20008;-86
2022/01/16 02:01:22;;;;;;;107.85;32.33;;;1.30;99.90;;;;;;6186467;23;20014;-87
2022/01/16 02:03:49;;;;;;;118.63;34.92;;;1.30;99.90;;;;;;6182927;23;20020;-85
2022/01/16 02:06:29;;;;;;;118.00;35.58;;;1.30;99.90;;;;;;6209087;23;20134;-85
2022/01/16 02:09:01;;;;;;;131.88;37.17;;;1.20;99.90;;;;;;6180780;23;20274;-86
2022/01/16 02:11:29;;;;;;;140.20;38.60;;;1.30;99.90;;;;;;6181328;23;20020;-85
2022/01/16 02:14:12;;;;;;;147.18;37.20;;;1.20;99.90;;;;;;6159334;23;20013;-85
2022/01/16 02:28:36;;;;;;;194.80;41.67;;;1.30;99.90;;;;;;6208792;23;20020;-86
2022/01/16 02:31:24;;;;;;;188.45;42.30;;;1.30;99.90;;;;;;6183755;23;20023;-88
2022/01/16 02:36:34;;;;;;;214.18;43.55;;;1.30;99.90;;;;;;6206429;23;20394;-87
2022/01/16 02:39:06;;;;;;;203.30;42.67;;;1.30;99.90;;;;;;6206632;23;20078;-86
2022/01/16 02:41:32;;;;;;;;;;;1.30;99.90;;;;;;6183140;23;20023;-88
2022/01/16 02:43:58;;;;;;;206.32;42.47;;;1.40;99.90;;;;;;6182507;23;19912;-87
2022/01/16 02:48:54;;;;;;;202.38;40.58;;;1.40;99.90;;;;;;6207685;23;20074;-86
2022/01/16 02:51:24;;;;;;;288.98;48.90;;;1.40;99.90;;;;;;6182068;23;20099;-87
2022/01/16 02:53:50;;;;;;;255.13;46.80;;;1.40;99.90;;;;;;6181991;23;20012;-87
2022/01/16 02:56:18;;;;;;;272.10;47.60;;;1.40;99.90;;;;;;6208024;23;20416;-87
2022/01/16 02:58:44;;;;;;;255.30;44.53;;;1.40;99.90;;;;;;6181016;23;20169;-86
2022/01/16 03:01:12;;;;;;;267.73;47.83;;;1.40;99.90;;;;;;6205985;23;20046;-87
2022/01/16 03:03:38;;;;;;;325.58;48.88;;;1.50;99.90;;;;;;6181098;23;20020;-86
2022/01/16 03:06:05;;;;;;;306.73;49.78;;;1.50;99.90;;;;;;6207038;23;20034;-86
2022/01/16 03:08:31;;;;;;;325.88;46.45;;;1.50;99.90;;;;;;6156822;23;20027;-87
2022/01/16 03:11:19;;;;;;;344.42;50.33;;;1.50;99.90;;;;;;6208673;23;20016;-88
2022/01/16 03:13:48;;;;;;;385.40;49.63;;;1.50;99.90;;;;;;6180213;23;20043;-86
2022/01/16 03:16:16;;;;;;;383.50;53.08;;;1.50;99.90;;;;;;6208646;23;20066;-86
2022/01/16 03:24:11;;;;;;;384.88;52.42;;;1.50;99.90;;;;;;6207883;23;20087;-86
2022/01/16 03:26:37;;;;;;;392.83;51.33;;;1.50;99.90;;;;;;6157278;23;20109;-87
2022/01/16 03:29:03;;;;;;;385.17;52.33;;;1.50;99.90;;;;;;6182655;23;20020;-87
2022/01/16 03:31:29;;;;;;;401.33;52.42;;;1.50;99.90;;;;;;6182666;23;20012;-87
2022/01/16 03:33:55;;;;;;;443.13;50.83;;;1.60;99.90;;;;;;6158376;23;20023;-87
2022/01/16 03:36:21;;;;;;;416.35;52.63;;;1.50;99.90;;;;;;6190637;23;20016;-87
2022/01/16 03:38:47;;;;;;;372.92;49.53;;;1.60;99.90;;;;;;6190667;23;20067;-87
2022/01/16 03:41:13;;;;;;;420.20;53.45;;;1.60;99.90;;;;;;6213794;23;20024;-87
2022/01/16 03:43:39;;;;;;;381.40;49.38;;;1.60;99.90;;;;;;6194418;23;20023;-87
2022/01/16 03:46:05;;;;;;;395.60;49.75;;;1.60;99.90;;;;;;6191125;23;20030;-88
2022/01/16 03:48:31;;;;;;;440.42;54.50;;;1.60;99.90;;;;;;6226903;23;20020;-87
2022/01/16 03:50:57;;;;;;;375.55;50.10;;;1.60;99.90;;;;;;6201023;23;20015;-87
2022/01/16 03:53:23;;;;;;;421.42;52.33;;;1.60;99.90;;;;;;6210429;23;20028;-87
2022/01/16 03:55:49;;;;;;;397.77;50.03;;;1.60;99.90;;;;;;6207218;23;20109;-87
2022/01/16 03:58:15;;;;;;;374.15;50.28;;;1.60;99.90;;;;;;6204127;23;20016;-88
2022/01/16 04:00:41;;;;;;;403.83;53.58;;;1.60;99.90;;;;;;6154995;23;20473;-86
2022/01/16 04:03:07;;;;;;;361.95;50.85;;;1.70;99.90;;;;;;6182242;23;20859;-86
2022/01/16 04:05:33;;;;;;;375.85;48.38;;;1.70;99.90;;;;;;6181729;23;20023;-86
2022/01/16 04:08:01;;;;;;;347.65;47.47;;;1.70;99.90;;;;;;6181899;23;20016;-86
2022/01/16 04:10:31;;;;;;;397.10;51.00;;;1.70;99.90;;;;;;6157833;23;20023;-86
2022/01/16 04:13:03;;;;;;;355.25;50.50;;;1.70;99.90;;;;;;6209190;23;20423;-86
2022/01/16 04:15:32;;;;;;;346.92;52.80;;;1.70;99.90;;;;;;6208651;23;20023;-86
2022/01/16 04:18:00;;;;;;;401.45;52.67;;;1.70;99.90;;;;;;6159132;23;20055;-87
2022/01/16 04:20:27;;;;;;;374.63;53.10;;;1.70;99.90;;;;;;6183140;23;20008;-87
2022/01/16 04:22:53;;;;;;;356.50;49.85;;;1.80;99.90;;;;;;6232537;23;20016;-87
2022/01/16 04:25:18;;;;;;;372.38;54.08;;;1.80;99.90;;;;;;6206816;23;20020;-86
2022/01/16 04:27:45;;;;;;;411.80;54.40;;;1.80;99.90;;;;;;6208083;23;20105;-86
2022/01/16 04:30:11;;;;;;;391.88;56.08;;;1.90;99.90;;;;;;6208767;23;20248;-87
2022/01/16 04:32:38;;;;;;;379.65;55.50;;;1.80;99.90;;;;;;6182760;23;20016;-86
2022/01/16 04:35:05;;;;;;;373.05;56.03;;;1.90;99.90;;;;;;6207037;23;20020;-87
2022/01/16 04:37:31;;;;;;;354.95;49.90;;;1.90;99.90;;;;;;6186086;23;20397;-87
2022/01/16 04:40:03;;;;;;;355.05;52.47;;;1.90;99.90;;;;;;6225464;23;20332;-88
2022/01/16 04:45:15;;;;;;;390.00;56.25;;;2.00;99.90;;;;;;6206609;23;20027;-87
2022/01/16 04:47:41;;;;;;;356.95;55.13;;;2.00;99.90;;;;;;6183001;23;20015;-87
2022/01/16 04:50:08;;;;;;;342.52;53.03;;;2.00;99.90;;;;;;6207398;23;20091;-87
2022/01/16 04:52:34;;;;;;;356.20;55.67;;;2.10;99.90;;;;;;6182550;23;20024;-89
2022/01/16 04:55:01;;;;;;;387.20;56.63;;;2.10;99.90;;;;;;6208195;23;20043;-87
2022/01/16 04:57:27;;;;;;;342.38;54.85;;;2.10;99.90;;;;;;6208525;23;20349;-87
2022/01/16 04:59:53;;;;;;;379.75;56.50;;;2.10;99.90;;;;;;6159640;23;20013;-88
2022/01/16 05:02:18;;;;;;;367.80;55.63;;;2.20;99.90;;;;;;6207365;23;20016;-87
2022/01/16 05:04:44;;;;;;;367.38;56.15;;;2.20;99.90;;;;;;6209029;23;20090;-87
2022/01/16 05:07:10;;;;;;;377.27;58.47;;;2.20;99.90;;;;;;6157935;23;20016;-87
2022/01/16 05:09:36;;;;;;;384.15;57.80;;;2.20;99.90;;;;;;6158158;23;20018;-87
2022/01/16 05:12:08;;;;;;;391.33;58.70;;;2.30;99.90;;;;;;6207014;23;20054;-86
2022/01/16 05:17:21;;;;;;;371.17;55.53;;;2.30;99.90;;;;;;6206879;23;20409;-86
2022/01/16 05:19:46;;;;;;;338.65;52.97;;;2.40;99.90;;;;;;6158972;23;20077;-87
2022/01/16 05:22:12;;;;;;;348.13;56.33;;;2.40;99.90;;;;;;6156416;23;20024;-87
2022/01/16 05:24:38;;;;;;;359.60;58.45;;;2.40;99.90;;;;;;6206997;23;20015;-87
2022/01/16 05:27:13;;;;;;;327.65;56.05;;;2.40;99.90;;;;;;6206913;23;20094;-87
2022/01/16 05:29:40;;;;;;;323.10;54.65;;;2.40;99.90;;;;;;6160146;23;20012;-87
2022/01/16 05:32:15;;;;;;;341.02;56.30;;;2.40;99.90;;;;;;6155256;23;20016;-87
2022/01/16 05:34:41;;;;;;;334.15;56.15;;;2.40;99.90;;;;;;6184376;23;20016;-88
2022/01/16 05:37:07;;;;;;;335.77;56.63;;;2.50;99.90;;;;;;6184465;23;20322;-88
2022/01/16 05:39:49;;;;;;;308.48;55.72;;;2.50;99.90;;;;;;6207166;23;20353;-87
2022/01/16 05:42:17;;;;;;;310.83;52.40;;;2.50;99.90;;;;;;6161075;23;20113;-86
2022/01/16 05:44:43;;;;;;;285.10;50.08;;;2.50;99.90;;;;;;6182649;23;20024;-86
2022/01/16 05:47:12;;;;;;;285.60;50.33;;;2.60;99.90;;;;;;6159226;23;20089;-88
2022/01/16 05:49:41;;;;;;;272.20;51.67;;;2.60;99.90;;;;;;6209661;23;20016;-87
2022/01/16 05:52:08;;;;;;;281.42;53.08;;;2.60;99.90;;;;;;6207583;23;20095;-87
2022/01/16 05:54:34;;;;;;;277.65;51.45;;;2.60;99.90;;;;;;6207292;23;20026;-87
2022/01/16 05:56:59;;;;;;;275.17;54.67;;;2.60;99.90;;;;;;6157291;23;20099;-88
2022/01/16 05:59:25;;;;;;;273.98;52.42;;;2.60;99.90;;;;;;6207281;23;20417;-87
2022/01/16 06:01:51;;;;;;;279.50;51.97;;;2.60;99.90;;;;;;6142899;23;20048;-86
2022/01/16 06:04:17;;;;;;;267.83;53.80;;;2.60;99.90;;;;;;6147550;23;20058;-86
2022/01/16 06:06:43;;;;;;;270.60;50.65;;;2.70;99.90;;;;;;6142811;23;20095;-84
2022/01/16 06:09:08;;;;;;;252.77;52.13;;;2.70;99.90;;;;;;6174113;23;20479;-86
2022/01/16 06:11:34;;;;;;;256.48;52.75;;;2.70;99.90;;;;;;6209658;23;20051;-85
2022/01/16 06:14:00;;;;;;;265.63;52.45;;;2.70;99.90;;;;;;6208315;23;20043;-87
2022/01/16 06:16:26;;;;;;;260.33;50.90;;;2.70;99.90;;;;;;6209465;23;20012;-86
2022/01/16 06:18:53;;;;;;;267.80;55.38;;;2.70;99.90;;;;;;6209839;22;20103;-86
2022/01/16 06:21:19;;;;;;;239.38;49.53;;;2.80;99.90;;;;;;6162222;23;20008;-86
2022/01/16 06:23:44;;;;;;;256.67;51.38;;;2.80;99.90;;;;;;6160547;23;20535;-87
2022/01/16 06:26:10;;;;;;;247.30;52.80;;;2.80;99.90;;;;;;6159584;23;20022;-86
2022/01/16 06:28:36;;;;;;;258.88;52.63;;;2.80;99.90;;;;;;6208671;23;20034;-86
2022/01/16 06:31:02;;;;;;;231.73;49.65;;;2.80;99.90;;;;;;6208993;23;20786;-86
2022/01/16 06:33:28;;;;;;;260.20;51.25;;;2.80;99.90;;;;;;6160055;23;20017;-86
2022/01/16 06:35:54;;;;;;;239.60;51.25;;;2.80;99.90;;;;;;6211616;23;20043;-86
2022/01/16 06:38:20;;;;;;;278.05;52.28;;;2.80;99.90;;;;;;6208849;23;20012;-85
2022/01/16 06:40:45;;;;;;;281.25;53.53;;;2.80;99.90;;;;;;6157781;23;20008;-86
2022/01/16 06:43:14;;;;;;;294.02;54.50;;;2.90;99.90;;;;;;6209693;23;20017;-87
2022/01/16 06:45:40;;;;;;;288.60;55.40;;;2.80;99.90;;;;;;6210419;23;20095;-85
2022/01/16 06:48:05;;;;;;;273.08;51.35;;;2.90;99.90;;;;;;6163077;23;20048;-84
2022/01/16 06:50:31;;;;;;;271.60;50.95;;;2.90;99.90;;;;;;6212035;23;20015;-86
2022/01/16 06:52:57;;;;;;;264.15;52.17;;;2.90;99.90;;;;;;6213311;23;20027;-85
2022/01/16 06:55:25;;;;;;;293.63;53.83;;;2.90;99.90;;;;;;6192444;23;20046;-87
2022/01/16 06:57:51;;;;;;;299.05;56.40;;;2.90;99.90;;;;;;6231289;23;20000;-85
2022/01/16 07:00:18;;;;;;;311.80;56.53;;;3.00;99.90;;;;;;6175821;23;20065;-87
2022/01/16 07:02:44;;;;;;;267.10;51.95;;;3.00;99.90;;;;;;6194711;23;20074;-86
2022/01/16 07:05:10;;;;;;;306.75;55.45;;;3.00;99.90;;;;;;6180809;23;20003;-86
2022/01/16 07:07:39;;;;;;;325.38;58.33;;;3.00;99.90;;;;;;6197451;23;20015;-85
2022/01/16 07:10:05;;;;;;;266.50;48.40;;;3.10;99.90;;;;;;6194856;23;20047;-85
2022/01/16 07:12:31;;;;;;;286.42;53.63;;;3.00;99.90;;;;;;6200428;23;20064;-86
2022/01/16 07:15:03;;;;;;;293.98;55.75;;;3.10;99.90;;;;;;6212986;23;20064;-86
2022/01/16 07:17:29;;;;;;;261.75;52.28;;;3.10;99.90;;;;;;6160882;23;20008;-86
2022/01/16 07:19:58;;;;;;;310.75;56.72;;;3.10;99.90;;;;;;6183777;23;20020;-86
2022/01/16 07:22:24;;;;;;;276.67;57.85;;;3.10;99.90;;;;;;6184750;23;20361;-87
2022/01/16 07:24:50;;;;;;;295.40;55.05;;;3.20;99.90;;;;;;6183048;23;20012;-87
2022/01/16 07:27:16;;;;;;;283.58;57.30;;;3.20;99.90;;;;;;6182768;23;20096;-85
2022/01/16 07:29:42;;;;;;;294.75;57.92;;;3.20;99.90;;;;;;6160444;23;20016;-87
2022/01/16 07:32:11;;;;;;;279.70;56.90;;;3.20;99.90;;;;;;6210025;23;20016;-86
2022/01/16 07:34:58;;;;;;;289.55;55.92;;;3.20;99.90;;;;;;6210570;23;20127;-86
2022/01/16 07:37:27;;;;;;;284.15;54.15;;;3.20;99.90;;;;;;6186581;23;20333;-86
2022/01/16 07:39:59;;;;;;;292.92;57.75;;;3.30;99.90;;;;;;6160876;23;20102;-87
2022/01/16 07:42:30;;;;;;;281.65;57.40;;;3.40;99.90;;;;;;6186620;23;20008;-87
2022/01/16 07:44:59;;;;;;;248.85;53.78;;;3.40;99.90;;;;;;6210599;23;20012;-87
2022/01/16 07:47:25;;;;;;;279.58;57.53;;;3.40;99.90;;;;;;6185624;23;20205;-87
2022/01/16 07:49:51;;;;;;;292.67;55.50;;;3.40;99.90;;;;;;6211285;23;20044;-85
2022/01/16 07:52:17;;;;;;;288.65;56.53;;;3.40;99.90;;;;;;6162763;23;20019;-85
2022/01/16 07:54:42;;;;;;;254.45;52.88;;;3.40;99.90;;;;;;6172598;23;20024;-86
2022/01/16 07:57:08;;;;;;;262.52;54.40;;;3.50;99.90;;;;;;6201015;23;20183;-85
2022/01/16 07:59:34;;;;;;;282.50;57.90;;;3.50;99.90;;;;;;6220041;23;20016;-85
2022/01/16 08:02:00;;;;;;;255.30;54.20;;;3.50;99.90;;;;;;6209896;23;20054;-85
2022/01/16 08:04:26;;;;;;;250.30;56.80;;;3.50;99.90;;;;;;6185139;23;20016;-84
2022/01/16 08:06:52;;;;;;;243.07;56.63;;;3.50;99.90;;;;;;6160797;23;20016;-85
2022/01/16 08:09:17;;;;;;;260.63;56.63;;;3.60;99.90;;;;;;6208824;23;20023;-86
2022/01/16 08:11:43;;;;;;;264.05;58.38;;;3.60;99.90;;;;;;6184841;23;20043;-85
2022/01/16 08:14:09;;;;;;;254.00;57.75;;;3.60;99.90;;;;;;6209420;23;20350;-86
2022/01/16 08:16:35;;;;;;;267.95;58.00;;;3.60;99.90;;;;;;6159000;23;20018;-86
2022/01/16 08:19:01;;;;;;;273.40;57.67;;;3.70;99.90;;;;;;6211676;23;20445;-86
2022/01/16 08:21:26;;;;;;;238.23;55.63;;;3.70;99.90;;;;;;6156807;23;20287;-85
2022/01/16 08:23:52;;;;;;;235.52;55.67;;;3.70;99.90;;;;;;6183481;22;20020;-84
2022/01/16 08:26:21;;;;;;;264.95;58.22;;;3.70;99.90;;;;;;6183910;23;20017;-86
2022/01/16 08:28:47;;;;;;;244.88;55.28;;;3.80;99.90;;;;;;6182877;23;20066;-85
2022/01/16 08:31:16;;;;;;;248.60;55.70;;;3.80;99.90;;;;;;6209061;23;20016;-86
2022/01/16 08:33:41;;;;;;;245.27;56.60;;;3.80;99.90;;;;;;6209574;23;20016;-85
2022/01/16 08:36:07;;;;;;;234.35;56.38;;;3.80;99.90;;;;;;6208652;23;20014;-85
2022/01/16 08:38:33;;;;;;;244.07;58.70;;;3.90;99.90;;;;;;6209140;23;20452;-85
2022/01/16 08:41:17;;;;;;;240.55;56.60;;;4.00;99.90;;;;;;6211545;23;20008;-86
2022/01/16 08:43:45;;;;;;;239.88;58.00;;;4.00;99.90;;;;;;6211977;23;20015;-85
2022/01/16 08:46:13;;;;;;;241.30;57.95;;;4.00;99.90;;;;;;6184855;23;20099;-85
2022/01/16 08:48:39;;;;;;;225.32;57.53;;;4.10;99.90;;;;;;6182686;23;20213;-86
2022/01/16 08:51:05;;;;;;;210.23;55.67;;;4.10;99.90;;;;;;6211612;23;20047;-85
2022/01/16 08:53:31;;;;;;;199.95;56.65;;;4.10;99.90;;;;;;6181830;23;20020;-85
2022/01/16 08:56:00;;;;;;;210.35;54.65;;;4.10;99.90;;;;;;6209927;23;20127;-86
2022/01/16 08:58:27;;;;;;;212.20;55.53;;;4.20;99.90;;;;;;6183326;23;20453;-85
2022/01/16 09:00:54;;;;;;;202.20;54.72;;;4.20;99.90;;;;;;6209710;23;20027;-86
2022/01/16 09:03:31;;;;;;;199.90;55.22;;;4.20;99.90;;;;;;6183399;23;20020;-85
2022/01/16 09:06:00;;;;;;;204.80;57.33;;;4.30;99.90;;;;;;6183856;23;20073;-85
2022/01/16 09:08:26;;;;;;;191.23;56.17;;;4.30;99.90;;;;;;6180273;23;20030;-86
2022/01/16 09:10:52;;;;;;;217.25;55.20;;;4.40;99.90;;;;;;6182502;23;20047;-85
2022/01/16 09:13:19;;;;;;;195.00;56.42;;;4.40;99.90;;;;;;6204115;23;20022;-86
2022/01/16 09:15:50;;;;;;;191.63;55.72;;;4.40;99.90;;;;;;6182846;23;20012;-85
2022/01/16 09:18:19;;;;;;;190.75;56.17;;;4.50;99.90;;;;;;6205144;23;20019;-86
2022/01/16 09:20:49;;;;;;;175.93;53.58;;;4.50;99.90;;;;;;6150696;23;20404;-85
2022/01/16 09:23:15;;;;;;;170.93;54.97;;;4.50;99.90;;;;;;6172148;23;20645;-85
2022/01/16 09:25:41;;;;;;;167.02;52.97;;;4.60;99.90;;;;;;6138574;23;20044;-85
2022/01/16 09:28:07;;;;;;;167.90;54.03;;;4.60;99.90;;;;;;6174059;23;20349;-86
2022/01/16 09:30:37;;;;;;;160.15;52.47;;;4.70;99.90;;;;;;6147414;23;20292;-85
2022/01/16 09:33:09;;;;;;;152.18;52.33;;;4.70;99.90;;;;;;6144894;23;20013;-85
2022/01/16 09:35:35;;;;;;;150.48;52.30;;;4.80;99.90;;;;;;6148253;23;20520;-86
2022/01/16 09:38:03;;;;;;;150.50;49.33;;;4.90;99.90;;;;;;6142430;23;20646;-86
2022/01/16 09:40:29;;;;;;;140.43;51.90;;;4.90;99.90;;;;;;6149239;23;20039;-86
2022/01/16 09:42:57;;;;;;;146.90;50.97;;;5.00;99.90;;;;;;6148402;23;20452;-85
2022/01/16 09:45:45;;;;;;;145.00;50.05;;;5.00;99.90;;;;;;6150016;23;20048;-85
2022/01/16 09:48:18;;;;;;;142.98;50.65;;;5.10;99.90;;;;;;6175454;23;20013;-86
2022/01/16 09:50:44;;;;;;;126.32;50.97;;;5.10;99.90;;;;;;6176924;23;20013;-86
2022/01/16 09:53:13;;;;;;;135.90;49.03;;;5.20;99.90;;;;;;6171733;23;20020;-86
2022/01/16 09:55:46;;;;;;;129.30;48.10;;;5.20;99.90;;;;;;6148110;23;20610;-87
2022/01/16 09:58:14;;;;;;;123.47;48.10;;;5.30;99.90;;;;;;6175021;23;20457;-86
2022/01/16 10:01:13;;;;;;;122.68;47.33;;;5.30;99.90;;;;;;6144188;23;20031;-86
2022/01/16 10:03:46;;;;;;;121.35;45.47;;;5.40;99.90;;;;;;6147529;23;20017;-85
2022/01/16 10:06:26;;;;;;;114.15;46.90;;;5.40;99.90;;;;;;6148848;23;20249;-86
2022/01/16 10:08:54;;;;;;;102.72;44.55;;;5.50;99.90;;;;;;6148264;23;20075;-85
2022/01/16 10:11:40;;;;;;;98.82;41.28;;;5.50;99.90;;;;;;6171400;23;20021;-86
2022/01/16 10:16:44;;;;;;;101.95;42.28;;;5.60;99.90;;;;;;6174444;23;20079;-84
2022/01/16 10:19:22;;;;;;;112.88;43.00;;;5.60;99.90;;;;;;6175638;23;20339;-83
2022/01/16 10:21:50;;;;;;;100.90;42.85;;;5.70;99.90;;;;;;6175402;23;20533;-85
2022/01/16 10:24:41;;;;;;;97.88;40.65;;;5.70;99.90;;;;;;6150116;23;20326;-84
2022/01/16 10:27:14;;;;;;;88.68;39.22;;;5.70;99.90;;;;;;6153531;23;20361;-87
2022/01/16 10:29:51;;;;;;;90.93;40.80;;;5.70;99.90;;;;;;6152842;23;20350;-85
2022/01/16 10:32:26;;;;;;;94.15;40.13;;;5.80;99.90;;;;;;6151234;23;20021;-86
2022/01/16 10:35:08;;;;;;;91.22;39.17;;;5.80;99.90;;;;;;6150109;23;20021;-85
2022/01/16 10:37:34;;;;;;;87.13;40.55;;;5.80;99.90;;;;;;6150855;23;20044;-85
2022/01/16 10:40:07;;;;;;;83.68;38.13;;;5.80;99.90;;;;;;6148466;23;20698;-86
2022/01/16 10:42:33;;;;;;;;;;;5.80;99.90;;;;;;6147455;23;20017;-85
2022/01/16 10:45:22;;;;;;;95.00;38.50;;;5.80;99.90;;;;;;6172507;23;20316;-87
2022/01/16 10:47:54;;;;;;;89.53;37.38;;;5.90;99.90;;;;;;6147229;23;20024;-84
2022/01/16 10:50:32;;;;;;;85.43;36.28;;;5.80;99.90;;;;;;6149372;23;20017;-86
2022/01/16 10:53:03;;;;;;;82.53;36.70;;;5.90;99.90;;;;;;6148595;23;20028;-86
2022/01/16 10:55:39;;;;;;;85.43;38.40;;;5.90;99.90;;;;;;6148072;23;20052;-87
2022/01/16 10:58:37;;;;;;;82.72;34.92;;;5.90;99.90;;;;;;6150534;23;20013;-85
2022/01/16 11:01:15;;;;;;;82.57;34.60;;;5.90;99.90;;;;;;6155668;23;20051;-85
2022/01/16 11:04:01;;;;;;;86.32;37.08;;;5.90;99.90;;;;;;6146914;23;20012;-85
2022/01/16 11:07:06;;;;;;;83.95;36.35;;;5.90;99.90;;;;;;6124762;23;20369;-86
2022/01/16 11:09:37;;;;;;;81.30;35.58;;;5.90;99.90;;;;;;6174657;23;20024;-86
2022/01/16 11:12:07;;;;;;;84.70;35.88;;;5.80;99.90;;;;;;6122347;23;20021;-86
2022/01/16 11:14:44;;;;;;;83.03;35.70;;;5.80;99.90;;;;;;6148008;23;20023;-86
2022/01/16 11:17:36;;;;;;;77.88;32.80;;;5.90;99.90;;;;;;6151676;23;20017;-87
2022/01/16 11:20:10;;;;;;;70.00;32.15;;;5.90;99.90;;;;;;6152037;23;20455;-87
2022/01/16 11:25:31;;;;;;;72.75;30.60;;;5.90;99.90;;;;;;6171818;23;20017;-87
2022/01/16 11:28:09;;;;;;;63.20;30.15;;;6.00;99.90;;;;;;6150011;23;20021;-87
2022/01/16 11:30:47;;;;;;;58.30;26.45;;;6.00;99.90;;;;;;6147711;23;20220;-87
2022/01/16 11:33:28;;;;;;;60.47;27.20;;;6.00;99.90;;;;;;6172597;23;20017;-88
2022/01/16 11:36:03;;;;;;;58.63;25.98;;;6.00;99.90;;;;;;6149140;23;20083;-86
2022/01/16 11:38:36;;;;;;;61.30;26.35;;;6.10;99.90;;;;;;6146632;23;20013;-87
2022/01/16 11:41:14;;;;;;;56.13;24.52;;;6.10;99.90;;;;;;6171987;23;20023;-87
2022/01/16 11:43:48;;;;;;;48.90;23.95;;;6.10;99.90;;;;;;6148125;23;20023;-86
2022/01/16 11:46:34;;;;;;;50.50;22.05;;;6.10;99.90;;;;;;6151012;23;20017;-84
2022/01/16 11:49:17;;;;;;;48.97;21.67;;;6.10;99.90;;;;;;6151827;23;20607;-85
2022/01/16 11:51:49;;;;;;;48.25;21.60;;;6.20;99.90;;;;;;6149975;23;20341;-85
2022/01/16 11:54:28;;;;;;;41.25;20.63;;;6.20;99.90;;;;;;6197259;23;20071;-85
2022/01/16 11:57:36;;;;;;;51.08;20.33;;;6.20;99.90;;;;;;6172690;23;20021;-87
2022/01/16 12:00:56;;;;;;;42.28;18.65;;;6.30;99.90;;;;;;6149181;23;20031;-85
2022/01/16 12:03:50;;;;;;;42.30;18.92;;;6.30;99.90;;;;;;6115157;23;20052;-88
2022/01/16 12:06:41;;;;;;;37.00;17.33;;;6.30;99.90;;;;;;6174436;23;20017;-85
2022/01/16 12:09:53;;;;;;;40.10;18.00;;;6.30;99.90;;;;;;6190170;23;20084;-85
2022/01/16 12:12:20;;;;;;;34.67;17.55;;;6.30;99.90;;;;;;6143732;23;20032;-87
2022/01/16 12:18:00;;;;;;;40.90;17.58;;;6.30;99.90;;;;;;6229384;22;20029;-86
2022/01/16 12:20:49;;;;;;;41.58;18.45;;;6.40;99.90;;;;;;6218841;23;20246;-85
2022/01/16 12:23:29;;;;;;;41.70;18.27;;;6.40;99.90;;;;;;6194488;23;20059;-86
2022/01/16 12:26:20;;;;;;;42.17;18.10;;;6.40;99.90;;;;;;6205535;23;20020;-84
2022/01/16 12:29:14;;;;;;;;;;;;;;;;;;;;;
2022/01/16 12:31:49;;;;;;;32.72;16.25;;;6.50;99.90;;;;;;6121494;22;20258;-86
2022/01/16 12:34:41;;;;;;;40.90;16.15;;;6.40;99.90;;;;;;6234651;22;20016;-86
2022/01/16 12:37:55;;;;;;;36.70;15.05;;;6.40;99.90;;;;;;6209902;23;20020;-85
2022/01/16 12:40:51;;;;;;;35.25;16.20;;;6.40;99.90;;;;;;6206429;23;20019;-85
2022/01/16 12:43:29;;;;;;;32.17;14.02;;;6.40;99.90;;;;;;6152068;23;20016;-86
2022/01/16 12:45:56;;;;;;;27.73;12.70;;;6.40;99.90;;;;;;6154007;23;20350;-86
2022/01/16 12:48:25;;;;;;;38.38;13.10;;;6.50;99.90;;;;;;6188761;23;20012;-88
2022/01/16 12:51:10;;;;;;;26.58;11.70;;;6.50;99.90;;;;;;6236027;23;20348;-84
2022/01/16 12:53:53;;;;;;;28.08;11.32;;;6.50;99.90;;;;;;6211788;23;20353;-84
2022/01/16 12:56:41;;;;;;;21.65;10.82;;;6.50;99.90;;;;;;6208588;23;20023;-85
2022/01/16 12:59:12;;;;;;;23.35;10.57;;;6.50;99.90;;;;;;6232179;23;20027;-86
2022/01/16 13:01:50;;;;;;;28.65;10.45;;;6.60;99.90;;;;;;6207251;23;20008;-86
2022/01/16 13:04:40;;;;;;;22.80;9.75;;;6.60;99.90;;;;;;6203622;23;20016;-87
2022/01/16 13:07:45;;;;;;;26.13;9.80;;;6.60;99.90;;;;;;6209566;23;20509;-85
2022/01/16 13:10:23;;;;;;;25.35;10.18;;;6.50;99.90;;;;;;6204215;23;20016;-86
2022/01/16 13:12:49;;;;;;;20.98;9.15;;;6.60;99.90;;;;;;6208726;23;20055;-82
2022/01/16 13:15:21;;;;;;;24.90;9.98;;;6.60;99.90;;;;;;6157122;22;20405;-87
2022/01/16 13:17:50;;;;;;;20.75;9.38;;;6.60;99.90;;;;;;6209539;23;20543;-85
2022/01/16 13:20:25;;;;;;;24.38;9.13;;;6.60;99.90;;;;;;6209570;23;20081;-85
2022/01/16 13:22:58;;;;;;;20.52;9.85;;;6.60;99.90;;;;;;6211465;23;20012;-86
2022/01/16 13:25:31;;;;;;;21.38;9.48;;;6.60;99.90;;;;;;6205047;23;20016;-87
2022/01/16 13:28:03;;;;;;;23.75;9.60;;;6.70;99.90;;;;;;6210467;23;20023;-86
2022/01/16 13:30:34;;;;;;;19.42;9.35;;;6.70;99.90;;;;;;6185874;23;20016;-85
2022/01/16 13:33:22;;;;;;;33.92;9.98;;;6.70;99.90;;;;;;6211090;22;20012;-86
2022/01/16 13:36:09;;;;;;;23.95;9.98;;;6.60;99.90;;;;;;6209775;23;20073;-87
2022/01/16 13:38:35;;;;;;;27.15;10.23;;;6.70;99.90;;;;;;6210512;23;20444;-87